sensor_id;sensor_type;location;lat;lon;timestamp;P1;durP1;ratioP1;P2;durP2;ratioP2
19537;SDS011;9914;51.008;4.300;2022-08-19T00:00:06;24.23;;;21.70;;
19537;SDS011;9914;51.008;4.300;2022-08-19T00:02:34;26.30;;;23.67;;
19537;SDS011;9914;51.008;4.300;2022-08-19T00:05:00;27.27;;;24.53;;
19537;SDS011;9914;51.008;4.300;2022-08-19T00:07:26;29.70;;;26.63;;
19537;SDS011;9914;51.008;4.300;2022-08-19T00:09:52;31.97;;;28.27;;
19537;SDS011;9914;51.008;4.300;2022-08-19T00:12:18;31.70;;;28.40;;
19537;SDS011;9914;51.008;4.300;2022-08-19T00:14:44;33.70;;;30.10;;
19537;SDS011;9914;51.008;4.300;2022-08-19T00:17:10;40.57;;;30.73;;
19537;SDS011;9914;51.008;4.300;2022-08-19T00:19:36;36.07;;;32.27;;
19537;SDS011;9914;51.008;4.300;2022-08-19T00:22:02;35.77;;;31.97;;
19537;SDS011;9914;51.008;4.300;2022-08-19T00:24:30;38.10;;;32.97;;
19537;SDS011;9914;51.008;4.300;2022-08-19T00:26:56;43.70;;;35.50;;
19537;SDS011;9914;51.008;4.300;2022-08-19T00:29:23;45.27;;;37.33;;
19537;SDS011;9914;51.008;4.300;2022-08-19T00:31:50;47.90;;;36.87;;
19537;SDS011;9914;51.008;4.300;2022-08-19T00:34:19;49.77;;;39.07;;
19537;SDS011;9914;51.008;4.300;2022-08-19T00:36:47;49.50;;;39.40;;
19537;SDS011;9914;51.008;4.300;2022-08-19T00:39:14;48.23;;;39.97;;
19537;SDS011;9914;51.008;4.300;2022-08-19T00:41:41;48.00;;;38.77;;
19537;SDS011;9914;51.008;4.300;2022-08-19T00:44:11;50.43;;;39.50;;
19537;SDS011;9914;51.008;4.300;2022-08-19T00:46:40;49.33;;;39.13;;
19537;SDS011;9914;51.008;4.300;2022-08-19T00:49:22;45.93;;;37.63;;
19537;SDS011;9914;51.008;4.300;2022-08-19T00:51:53;49.07;;;39.83;;
19537;SDS011;9914;51.008;4.300;2022-08-19T00:54:23;44.43;;;36.83;;
19537;SDS011;9914;51.008;4.300;2022-08-19T00:56:49;47.40;;;38.80;;
19537;SDS011;9914;51.008;4.300;2022-08-19T00:59:16;48.53;;;39.87;;
19537;SDS011;9914;51.008;4.300;2022-08-19T01:01:43;45.57;;;37.93;;
19537;SDS011;9914;51.008;4.300;2022-08-19T01:04:10;47.13;;;37.80;;
19537;SDS011;9914;51.008;4.300;2022-08-19T01:06:36;46.40;;;37.90;;
19537;SDS011;9914;51.008;4.300;2022-08-19T01:09:04;49.10;;;39.83;;
19537;SDS011;9914;51.008;4.300;2022-08-19T01:11:31;46.00;;;37.07;;
19537;SDS011;9914;51.008;4.300;2022-08-19T01:14:00;44.87;;;36.83;;
19537;SDS011;9914;51.008;4.300;2022-08-19T01:16:26;44.73;;;37.83;;
19537;SDS011;9914;51.008;4.300;2022-08-19T01:18:54;52.83;;;38.83;;
19537;SDS011;9914;51.008;4.300;2022-08-19T01:23:52;46.87;;;39.27;;
19537;SDS011;9914;51.008;4.300;2022-08-19T01:26:20;48.07;;;40.57;;
19537;SDS011;9914;51.008;4.300;2022-08-19T01:28:48;48.67;;;40.73;;
19537;SDS011;9914;51.008;4.300;2022-08-19T01:31:17;51.50;;;41.40;;
19537;SDS011;9914;51.008;4.300;2022-08-19T01:33:46;49.00;;;39.70;;
19537;SDS011;9914;51.008;4.300;2022-08-19T01:36:14;52.97;;;39.70;;
19537;SDS011;9914;51.008;4.300;2022-08-19T01:38:48;51.77;;;40.67;;
19537;SDS011;9914;51.008;4.300;2022-08-19T01:41:14;53.77;;;40.43;;
19537;SDS011;9914;51.008;4.300;2022-08-19T01:43:41;50.57;;;40.40;;
19537;SDS011;9914;51.008;4.300;2022-08-19T01:46:07;50.40;;;41.73;;
19537;SDS011;9914;51.008;4.300;2022-08-19T01:48:34;49.37;;;40.80;;
19537;SDS011;9914;51.008;4.300;2022-08-19T01:51:01;53.00;;;41.83;;
19537;SDS011;9914;51.008;4.300;2022-08-19T01:53:27;61.33;;;44.73;;
19537;SDS011;9914;51.008;4.300;2022-08-19T01:55:53;53.53;;;42.57;;
19537;SDS011;9914;51.008;4.300;2022-08-19T01:58:19;55.27;;;43.10;;
19537;SDS011;9914;51.008;4.300;2022-08-19T02:00:48;56.33;;;43.83;;
19537;SDS011;9914;51.008;4.300;2022-08-19T02:03:14;55.27;;;44.23;;
19537;SDS011;9914;51.008;4.300;2022-08-19T02:05:41;58.93;;;43.87;;
19537;SDS011;9914;51.008;4.300;2022-08-19T02:08:07;63.33;;;46.30;;
19537;SDS011;9914;51.008;4.300;2022-08-19T02:10:33;62.90;;;46.13;;
19537;SDS011;9914;51.008;4.300;2022-08-19T02:13:02;59.90;;;46.03;;
19537;SDS011;9914;51.008;4.300;2022-08-19T02:15:28;62.40;;;44.20;;
19537;SDS011;9914;51.008;4.300;2022-08-19T02:17:54;61.33;;;44.13;;
19537;SDS011;9914;51.008;4.300;2022-08-19T02:20:19;61.40;;;45.53;;
19537;SDS011;9914;51.008;4.300;2022-08-19T02:22:45;57.10;;;44.20;;
19537;SDS011;9914;51.008;4.300;2022-08-19T02:25:12;58.13;;;42.83;;
19537;SDS011;9914;51.008;4.300;2022-08-19T02:27:39;55.93;;;42.03;;
19537;SDS011;9914;51.008;4.300;2022-08-19T02:30:06;57.83;;;40.47;;
19537;SDS011;9914;51.008;4.300;2022-08-19T02:32:34;51.63;;;40.80;;
19537;SDS011;9914;51.008;4.300;2022-08-19T02:35:00;55.33;;;39.07;;
19537;SDS011;9914;51.008;4.300;2022-08-19T02:37:26;48.87;;;38.20;;
19537;SDS011;9914;51.008;4.300;2022-08-19T02:40:10;52.53;;;38.47;;
19537;SDS011;9914;51.008;4.300;2022-08-19T02:42:37;46.23;;;35.93;;
19537;SDS011;9914;51.008;4.300;2022-08-19T02:45:03;45.23;;;34.80;;
19537;SDS011;9914;51.008;4.300;2022-08-19T02:47:29;49.97;;;35.97;;
19537;SDS011;9914;51.008;4.300;2022-08-19T02:49:55;47.90;;;34.87;;
19537;SDS011;9914;51.008;4.300;2022-08-19T02:52:21;50.73;;;34.80;;
19537;SDS011;9914;51.008;4.300;2022-08-19T02:54:48;46.20;;;34.60;;
19537;SDS011;9914;51.008;4.300;2022-08-19T02:57:14;46.53;;;35.13;;
19537;SDS011;9914;51.008;4.300;2022-08-19T02:59:39;48.43;;;34.00;;
19537;SDS011;9914;51.008;4.300;2022-08-19T03:02:05;44.37;;;33.43;;
19537;SDS011;9914;51.008;4.300;2022-08-19T03:04:31;45.90;;;34.47;;
19537;SDS011;9914;51.008;4.300;2022-08-19T03:06:56;44.17;;;33.83;;
19537;SDS011;9914;51.008;4.300;2022-08-19T03:09:22;45.07;;;33.23;;
19537;SDS011;9914;51.008;4.300;2022-08-19T03:11:47;42.33;;;33.03;;
19537;SDS011;9914;51.008;4.300;2022-08-19T03:14:13;43.90;;;34.20;;
19537;SDS011;9914;51.008;4.300;2022-08-19T03:16:41;45.60;;;32.37;;
19537;SDS011;9914;51.008;4.300;2022-08-19T03:19:12;43.23;;;32.93;;
19537;SDS011;9914;51.008;4.300;2022-08-19T03:21:38;46.87;;;33.17;;
19537;SDS011;9914;51.008;4.300;2022-08-19T03:24:05;47.73;;;32.97;;
19537;SDS011;9914;51.008;4.300;2022-08-19T03:26:32;44.13;;;33.30;;
19537;SDS011;9914;51.008;4.300;2022-08-19T03:29:02;43.77;;;32.63;;
19537;SDS011;9914;51.008;4.300;2022-08-19T03:31:29;41.60;;;32.97;;
19537;SDS011;9914;51.008;4.300;2022-08-19T03:33:56;41.80;;;31.60;;
19537;SDS011;9914;51.008;4.300;2022-08-19T03:36:23;41.33;;;32.53;;
19537;SDS011;9914;51.008;4.300;2022-08-19T03:38:51;41.10;;;30.97;;
19537;SDS011;9914;51.008;4.300;2022-08-19T03:41:23;41.27;;;30.10;;
19537;SDS011;9914;51.008;4.300;2022-08-19T03:43:50;42.40;;;31.83;;
19537;SDS011;9914;51.008;4.300;2022-08-19T03:46:18;39.70;;;30.70;;
19537;SDS011;9914;51.008;4.300;2022-08-19T03:48:46;36.00;;;28.63;;
19537;SDS011;9914;51.008;4.300;2022-08-19T03:51:29;38.63;;;29.03;;
19537;SDS011;9914;51.008;4.300;2022-08-19T03:53:56;41.97;;;29.97;;
19537;SDS011;9914;51.008;4.300;2022-08-19T03:56:23;43.70;;;30.27;;
19537;SDS011;9914;51.008;4.300;2022-08-19T03:58:51;40.33;;;29.47;;
19537;SDS011;9914;51.008;4.300;2022-08-19T04:01:18;40.97;;;29.47;;
19537;SDS011;9914;51.008;4.300;2022-08-19T04:03:45;43.30;;;29.60;;
19537;SDS011;9914;51.008;4.300;2022-08-19T04:08:39;38.53;;;28.70;;
19537;SDS011;9914;51.008;4.300;2022-08-19T04:11:06;39.57;;;28.23;;
19537;SDS011;9914;51.008;4.300;2022-08-19T04:13:33;38.27;;;27.73;;
19537;SDS011;9914;51.008;4.300;2022-08-19T04:15:59;38.20;;;28.30;;
19537;SDS011;9914;51.008;4.300;2022-08-19T04:18:25;38.47;;;26.47;;
19537;SDS011;9914;51.008;4.300;2022-08-19T04:20:51;36.00;;;26.30;;
19537;SDS011;9914;51.008;4.300;2022-08-19T04:23:17;40.83;;;27.73;;
19537;SDS011;9914;51.008;4.300;2022-08-19T04:25:43;38.20;;;26.80;;
19537;SDS011;9914;51.008;4.300;2022-08-19T04:28:10;33.27;;;25.63;;
19537;SDS011;9914;51.008;4.300;2022-08-19T04:30:44;35.77;;;26.37;;
19537;SDS011;9914;51.008;4.300;2022-08-19T04:33:13;33.97;;;25.20;;
19537;SDS011;9914;51.008;4.300;2022-08-19T04:35:41;33.57;;;25.63;;
19537;SDS011;9914;51.008;4.300;2022-08-19T04:38:09;34.93;;;23.93;;
19537;SDS011;9914;51.008;4.300;2022-08-19T04:40:42;32.07;;;24.13;;
19537;SDS011;9914;51.008;4.300;2022-08-19T04:43:28;33.60;;;24.00;;
19537;SDS011;9914;51.008;4.300;2022-08-19T04:45:54;32.90;;;23.93;;
19537;SDS011;9914;51.008;4.300;2022-08-19T04:48:20;32.80;;;23.53;;
19537;SDS011;9914;51.008;4.300;2022-08-19T04:50:54;33.27;;;23.97;;
19537;SDS011;9914;51.008;4.300;2022-08-19T04:53:25;33.43;;;23.83;;
19537;SDS011;9914;51.008;4.300;2022-08-19T04:55:53;33.80;;;23.37;;
19537;SDS011;9914;51.008;4.300;2022-08-19T04:58:20;34.50;;;22.87;;
19537;SDS011;9914;51.008;4.300;2022-08-19T05:00:45;31.60;;;23.73;;
19537;SDS011;9914;51.008;4.300;2022-08-19T05:03:11;34.50;;;24.43;;
19537;SDS011;9914;51.008;4.300;2022-08-19T05:05:38;31.17;;;23.63;;
19537;SDS011;9914;51.008;4.300;2022-08-19T05:08:05;33.33;;;24.90;;
19537;SDS011;9914;51.008;4.300;2022-08-19T05:10:32;33.10;;;24.53;;
19537;SDS011;9914;51.008;4.300;2022-08-19T05:13:00;36.60;;;24.20;;
19537;SDS011;9914;51.008;4.300;2022-08-19T05:15:26;33.70;;;24.67;;
19537;SDS011;9914;51.008;4.300;2022-08-19T05:17:51;30.97;;;23.77;;
19537;SDS011;9914;51.008;4.300;2022-08-19T05:20:37;33.47;;;25.03;;
19537;SDS011;9914;51.008;4.300;2022-08-19T05:23:22;35.13;;;25.17;;
19537;SDS011;9914;51.008;4.300;2022-08-19T05:25:48;38.53;;;24.87;;
19537;SDS011;9914;51.008;4.300;2022-08-19T05:28:15;31.47;;;24.90;;
19537;SDS011;9914;51.008;4.300;2022-08-19T05:30:41;34.93;;;25.10;;
19537;SDS011;9914;51.008;4.300;2022-08-19T05:33:08;31.77;;;23.97;;
19537;SDS011;9914;51.008;4.300;2022-08-19T05:35:35;30.27;;;22.27;;
19537;SDS011;9914;51.008;4.300;2022-08-19T05:38:02;29.13;;;22.20;;
19537;SDS011;9914;51.008;4.300;2022-08-19T05:40:28;30.53;;;20.60;;
19537;SDS011;9914;51.008;4.300;2022-08-19T05:42:55;28.40;;;21.20;;
19537;SDS011;9914;51.008;4.300;2022-08-19T05:45:21;30.93;;;21.30;;
19537;SDS011;9914;51.008;4.300;2022-08-19T05:47:47;29.43;;;19.87;;
19537;SDS011;9914;51.008;4.300;2022-08-19T05:50:12;25.43;;;19.47;;
19537;SDS011;9914;51.008;4.300;2022-08-19T05:52:38;27.17;;;19.10;;
19537;SDS011;9914;51.008;4.300;2022-08-19T05:55:04;27.43;;;18.50;;
19537;SDS011;9914;51.008;4.300;2022-08-19T05:57:31;27.97;;;18.13;;
19537;SDS011;9914;51.008;4.300;2022-08-19T05:59:57;25.03;;;17.73;;
19537;SDS011;9914;51.008;4.300;2022-08-19T06:02:28;21.77;;;17.23;;
19537;SDS011;9914;51.008;4.300;2022-08-19T06:04:55;24.73;;;15.93;;
19537;SDS011;9914;51.008;4.300;2022-08-19T06:07:21;22.27;;;15.93;;
19537;SDS011;9914;51.008;4.300;2022-08-19T06:09:47;20.30;;;15.70;;
19537;SDS011;9914;51.008;4.300;2022-08-19T06:12:12;25.13;;;16.00;;
19537;SDS011;9914;51.008;4.300;2022-08-19T06:14:38;23.93;;;14.97;;
19537;SDS011;9914;51.008;4.300;2022-08-19T06:17:03;22.43;;;14.90;;
19537;SDS011;9914;51.008;4.300;2022-08-19T06:19:29;23.13;;;15.37;;
19537;SDS011;9914;51.008;4.300;2022-08-19T06:21:56;28.87;;;16.00;;
19537;SDS011;9914;51.008;4.300;2022-08-19T06:24:24;20.63;;;13.53;;
19537;SDS011;9914;51.008;4.300;2022-08-19T06:26:52;18.90;;;13.17;;
19537;SDS011;9914;51.008;4.300;2022-08-19T06:29:20;18.23;;;13.77;;
19537;SDS011;9914;51.008;4.300;2022-08-19T06:31:48;18.03;;;12.53;;
19537;SDS011;9914;51.008;4.300;2022-08-19T06:34:15;17.10;;;12.57;;
19537;SDS011;9914;51.008;4.300;2022-08-19T06:36:44;24.30;;;13.90;;
19537;SDS011;9914;51.008;4.300;2022-08-19T06:39:13;28.37;;;14.10;;
19537;SDS011;9914;51.008;4.300;2022-08-19T06:41:45;20.20;;;12.47;;
19537;SDS011;9914;51.008;4.300;2022-08-19T06:44:13;17.20;;;12.57;;
19537;SDS011;9914;51.008;4.300;2022-08-19T06:46:39;19.70;;;12.13;;
19537;SDS011;9914;51.008;4.300;2022-08-19T06:49:06;19.90;;;12.80;;
19537;SDS011;9914;51.008;4.300;2022-08-19T06:51:34;20.10;;;12.63;;
19537;SDS011;9914;51.008;4.300;2022-08-19T06:54:00;16.47;;;12.13;;
19537;SDS011;9914;51.008;4.300;2022-08-19T06:56:28;20.00;;;12.60;;
19537;SDS011;9914;51.008;4.300;2022-08-19T06:59:13;33.90;;;13.57;;
19537;SDS011;9914;51.008;4.300;2022-08-19T07:01:42;17.67;;;13.10;;
19537;SDS011;9914;51.008;4.300;2022-08-19T07:04:10;20.53;;;13.60;;
19537;SDS011;9914;51.008;4.300;2022-08-19T07:06:37;15.47;;;12.97;;
19537;SDS011;9914;51.008;4.300;2022-08-19T07:09:04;21.13;;;13.00;;
19537;SDS011;9914;51.008;4.300;2022-08-19T07:11:31;18.60;;;12.90;;
19537;SDS011;9914;51.008;4.300;2022-08-19T07:13:58;16.70;;;12.80;;
19537;SDS011;9914;51.008;4.300;2022-08-19T07:16:24;19.07;;;13.50;;
19537;SDS011;9914;51.008;4.300;2022-08-19T07:18:50;16.00;;;11.73;;
19537;SDS011;9914;51.008;4.300;2022-08-19T07:21:18;16.90;;;12.63;;
19537;SDS011;9914;51.008;4.300;2022-08-19T07:23:46;20.83;;;12.43;;
19537;SDS011;9914;51.008;4.300;2022-08-19T07:26:18;15.83;;;11.97;;
19537;SDS011;9914;51.008;4.300;2022-08-19T07:28:46;15.83;;;11.87;;
19537;SDS011;9914;51.008;4.300;2022-08-19T07:31:13;16.27;;;11.57;;
19537;SDS011;9914;51.008;4.300;2022-08-19T07:33:43;16.30;;;11.07;;
19537;SDS011;9914;51.008;4.300;2022-08-19T07:36:11;28.30;;;13.07;;
19537;SDS011;9914;51.008;4.300;2022-08-19T07:38:40;15.90;;;11.93;;
19537;SDS011;9914;51.008;4.300;2022-08-19T07:41:07;15.83;;;11.03;;
19537;SDS011;9914;51.008;4.300;2022-08-19T07:43:38;18.03;;;11.00;;
19537;SDS011;9914;51.008;4.300;2022-08-19T07:46:04;14.40;;;9.87;;
19537;SDS011;9914;51.008;4.300;2022-08-19T07:48:30;15.17;;;10.33;;
19537;SDS011;9914;51.008;4.300;2022-08-19T07:50:58;18.77;;;9.30;;
19537;SDS011;9914;51.008;4.300;2022-08-19T07:53:28;12.50;;;9.00;;
19537;SDS011;9914;51.008;4.300;2022-08-19T07:55:55;13.10;;;8.20;;
19537;SDS011;9914;51.008;4.300;2022-08-19T07:58:26;10.17;;;8.00;;
19537;SDS011;9914;51.008;4.300;2022-08-19T08:00:52;10.87;;;7.13;;
19537;SDS011;9914;51.008;4.300;2022-08-19T08:03:20;10.27;;;6.80;;
19537;SDS011;9914;51.008;4.300;2022-08-19T08:06:09;9.73;;;7.00;;
19537;SDS011;9914;51.008;4.300;2022-08-19T08:08:54;10.77;;;6.77;;
19537;SDS011;9914;51.008;4.300;2022-08-19T08:11:47;10.07;;;7.50;;
19537;SDS011;9914;51.008;4.300;2022-08-19T08:14:17;11.57;;;7.37;;
19537;SDS011;9914;51.008;4.300;2022-08-19T08:16:48;10.93;;;7.13;;
19537;SDS011;9914;51.008;4.300;2022-08-19T08:19:15;12.90;;;7.30;;
19537;SDS011;9914;51.008;4.300;2022-08-19T08:21:42;15.03;;;7.43;;
19537;SDS011;9914;51.008;4.300;2022-08-19T08:24:08;21.67;;;8.23;;
19537;SDS011;9914;51.008;4.300;2022-08-19T08:26:34;18.83;;;7.67;;
19537;SDS011;9914;51.008;4.300;2022-08-19T08:29:00;11.27;;;7.73;;
19537;SDS011;9914;51.008;4.300;2022-08-19T08:31:26;25.80;;;8.30;;
19537;SDS011;9914;51.008;4.300;2022-08-19T08:33:52;12.43;;;7.53;;
19537;SDS011;9914;51.008;4.300;2022-08-19T08:36:18;18.60;;;8.80;;
19537;SDS011;9914;51.008;4.300;2022-08-19T08:38:44;12.63;;;7.40;;
19537;SDS011;9914;51.008;4.300;2022-08-19T08:41:13;11.77;;;7.10;;
19537;SDS011;9914;51.008;4.300;2022-08-19T08:43:45;10.93;;;8.60;;
19537;SDS011;9914;51.008;4.300;2022-08-19T08:46:31;10.37;;;8.00;;
19537;SDS011;9914;51.008;4.300;2022-08-19T08:52:07;17.00;;;9.07;;
19537;SDS011;9914;51.008;4.300;2022-08-19T08:54:40;38.80;;;12.07;;
19537;SDS011;9914;51.008;4.300;2022-08-19T08:57:12;13.07;;;8.67;;
19537;SDS011;9914;51.008;4.300;2022-08-19T08:59:43;14.93;;;8.87;;
19537;SDS011;9914;51.008;4.300;2022-08-19T09:02:15;60.43;;;16.53;;
19537;SDS011;9914;51.008;4.300;2022-08-19T09:04:41;16.67;;;9.23;;
19537;SDS011;9914;51.008;4.300;2022-08-19T09:07:26;11.57;;;8.73;;
19537;SDS011;9914;51.008;4.300;2022-08-19T09:10:04;12.60;;;8.13;;
19537;SDS011;9914;51.008;4.300;2022-08-19T09:15:16;10.43;;;8.37;;
19537;SDS011;9914;51.008;4.300;2022-08-19T09:17:45;13.33;;;8.50;;
19537;SDS011;9914;51.008;4.300;2022-08-19T09:22:47;10.60;;;8.20;;
19537;SDS011;9914;51.008;4.300;2022-08-19T09:25:15;12.27;;;7.97;;
19537;SDS011;9914;51.008;4.300;2022-08-19T09:27:42;11.73;;;7.30;;
19537;SDS011;9914;51.008;4.300;2022-08-19T09:30:27;11.50;;;7.83;;
19537;SDS011;9914;51.008;4.300;2022-08-19T09:32:55;11.13;;;7.87;;
19537;SDS011;9914;51.008;4.300;2022-08-19T09:35:21;11.97;;;8.33;;
19537;SDS011;9914;51.008;4.300;2022-08-19T09:37:52;10.93;;;8.10;;
19537;SDS011;9914;51.008;4.300;2022-08-19T09:40:18;10.10;;;7.27;;
19537;SDS011;9914;51.008;4.300;2022-08-19T09:42:45;9.77;;;7.83;;
19537;SDS011;9914;51.008;4.300;2022-08-19T09:45:13;10.97;;;7.73;;
19537;SDS011;9914;51.008;4.300;2022-08-19T09:47:39;13.37;;;7.90;;
19537;SDS011;9914;51.008;4.300;2022-08-19T09:50:05;12.20;;;8.37;;
19537;SDS011;9914;51.008;4.300;2022-08-19T09:52:32;13.13;;;8.03;;
19537;SDS011;9914;51.008;4.300;2022-08-19T09:55:05;14.43;;;8.33;;
19537;SDS011;9914;51.008;4.300;2022-08-19T09:57:32;11.97;;;7.93;;
19537;SDS011;9914;51.008;4.300;2022-08-19T09:59:58;12.13;;;7.73;;
19537;SDS011;9914;51.008;4.300;2022-08-19T10:02:23;12.87;;;7.83;;
19537;SDS011;9914;51.008;4.300;2022-08-19T10:04:49;12.40;;;7.90;;
19537;SDS011;9914;51.008;4.300;2022-08-19T10:07:34;8.80;;;7.30;;
19537;SDS011;9914;51.008;4.300;2022-08-19T10:10:00;11.47;;;7.43;;
19537;SDS011;9914;51.008;4.300;2022-08-19T10:12:26;12.27;;;7.57;;
19537;SDS011;9914;51.008;4.300;2022-08-19T10:14:52;10.47;;;7.27;;
19537;SDS011;9914;51.008;4.300;2022-08-19T10:17:19;11.50;;;7.60;;
19537;SDS011;9914;51.008;4.300;2022-08-19T10:19:45;8.13;;;7.00;;
19537;SDS011;9914;51.008;4.300;2022-08-19T10:22:12;11.27;;;7.00;;
19537;SDS011;9914;51.008;4.300;2022-08-19T10:24:38;10.90;;;6.90;;
19537;SDS011;9914;51.008;4.300;2022-08-19T10:27:04;10.97;;;7.33;;
19537;SDS011;9914;51.008;4.300;2022-08-19T10:29:30;10.63;;;7.30;;
19537;SDS011;9914;51.008;4.300;2022-08-19T10:31:57;11.47;;;7.37;;
19537;SDS011;9914;51.008;4.300;2022-08-19T10:34:25;19.20;;;7.87;;
19537;SDS011;9914;51.008;4.300;2022-08-19T10:36:51;11.30;;;7.30;;
19537;SDS011;9914;51.008;4.300;2022-08-19T10:39:17;10.33;;;7.10;;
19537;SDS011;9914;51.008;4.300;2022-08-19T10:41:43;7.80;;;7.00;;
19537;SDS011;9914;51.008;4.300;2022-08-19T10:44:09;7.60;;;6.10;;
19537;SDS011;9914;51.008;4.300;2022-08-19T10:46:38;8.63;;;6.73;;
19537;SDS011;9914;51.008;4.300;2022-08-19T10:49:06;7.97;;;6.03;;
19537;SDS011;9914;51.008;4.300;2022-08-19T10:51:34;17.57;;;7.33;;
19537;SDS011;9914;51.008;4.300;2022-08-19T10:54:19;7.80;;;6.00;;
19537;SDS011;9914;51.008;4.300;2022-08-19T10:56:45;8.57;;;6.30;;
19537;SDS011;9914;51.008;4.300;2022-08-19T10:59:20;12.03;;;6.70;;
19537;SDS011;9914;51.008;4.300;2022-08-19T11:01:48;8.57;;;6.63;;
19537;SDS011;9914;51.008;4.300;2022-08-19T11:04:14;32.33;;;9.17;;
19537;SDS011;9914;51.008;4.300;2022-08-19T11:06:43;7.60;;;6.00;;
19537;SDS011;9914;51.008;4.300;2022-08-19T11:09:12;9.57;;;6.13;;
19537;SDS011;9914;51.008;4.300;2022-08-19T11:11:43;9.57;;;6.07;;
19537;SDS011;9914;51.008;4.300;2022-08-19T11:14:11;7.33;;;5.53;;
19537;SDS011;9914;51.008;4.300;2022-08-19T11:16:38;10.57;;;5.53;;
19537;SDS011;9914;51.008;4.300;2022-08-19T11:19:06;5.97;;;4.57;;
19537;SDS011;9914;51.008;4.300;2022-08-19T11:21:37;6.40;;;4.43;;
19537;SDS011;9914;51.008;4.300;2022-08-19T11:24:11;5.70;;;4.40;;
19537;SDS011;9914;51.008;4.300;2022-08-19T11:26:40;8.23;;;4.80;;
19537;SDS011;9914;51.008;4.300;2022-08-19T11:29:08;7.17;;;4.27;;
19537;SDS011;9914;51.008;4.300;2022-08-19T11:31:38;5.43;;;4.57;;
19537;SDS011;9914;51.008;4.300;2022-08-19T11:34:07;4.80;;;4.13;;
19537;SDS011;9914;51.008;4.300;2022-08-19T11:36:36;6.37;;;4.20;;
19537;SDS011;9914;51.008;4.300;2022-08-19T11:39:04;5.30;;;4.33;;
19537;SDS011;9914;51.008;4.300;2022-08-19T11:41:31;5.77;;;4.17;;
19537;SDS011;9914;51.008;4.300;2022-08-19T11:43:57;6.53;;;4.70;;
19537;SDS011;9914;51.008;4.300;2022-08-19T11:46:23;5.10;;;4.23;;
19537;SDS011;9914;51.008;4.300;2022-08-19T11:48:51;5.77;;;4.60;;
19537;SDS011;9914;51.008;4.300;2022-08-19T11:51:18;5.17;;;4.40;;
19537;SDS011;9914;51.008;4.300;2022-08-19T11:53:46;9.83;;;4.77;;
19537;SDS011;9914;51.008;4.300;2022-08-19T11:56:12;5.33;;;4.17;;
19537;SDS011;9914;51.008;4.300;2022-08-19T11:58:39;7.03;;;4.13;;
19537;SDS011;9914;51.008;4.300;2022-08-19T12:01:13;8.63;;;4.03;;
19537;SDS011;9914;51.008;4.300;2022-08-19T12:03:43;5.33;;;3.70;;
19537;SDS011;9914;51.008;4.300;2022-08-19T12:06:11;6.00;;;3.80;;
19537;SDS011;9914;51.008;4.300;2022-08-19T12:08:40;11.57;;;3.57;;
19537;SDS011;9914;51.008;4.300;2022-08-19T12:11:06;4.83;;;3.47;;
19537;SDS011;9914;51.008;4.300;2022-08-19T12:13:35;5.67;;;4.80;;
19537;SDS011;9914;51.008;4.300;2022-08-19T12:16:07;5.27;;;3.87;;
19537;SDS011;9914;51.008;4.300;2022-08-19T12:18:37;5.50;;;4.07;;
19537;SDS011;9914;51.008;4.300;2022-08-19T12:21:03;5.10;;;4.17;;
19537;SDS011;9914;51.008;4.300;2022-08-19T12:23:29;6.10;;;4.33;;
19537;SDS011;9914;51.008;4.300;2022-08-19T12:25:55;6.90;;;5.07;;
19537;SDS011;9914;51.008;4.300;2022-08-19T12:28:22;6.10;;;5.50;;
19537;SDS011;9914;51.008;4.300;2022-08-19T12:30:49;6.87;;;6.20;;
19537;SDS011;9914;51.008;4.300;2022-08-19T12:33:16;7.53;;;6.63;;
19537;SDS011;9914;51.008;4.300;2022-08-19T12:35:49;7.83;;;6.63;;
19537;SDS011;9914;51.008;4.300;2022-08-19T12:38:15;8.57;;;5.73;;
19537;SDS011;9914;51.008;4.300;2022-08-19T12:40:41;7.40;;;6.57;;
19537;SDS011;9914;51.008;4.300;2022-08-19T12:43:11;8.83;;;6.40;;
19537;SDS011;9914;51.008;4.300;2022-08-19T12:45:38;7.13;;;5.97;;
19537;SDS011;9914;51.008;4.300;2022-08-19T12:48:04;7.13;;;5.93;;
19537;SDS011;9914;51.008;4.300;2022-08-19T12:50:30;5.40;;;4.90;;
19537;SDS011;9914;51.008;4.300;2022-08-19T12:52:56;5.03;;;4.53;;
19537;SDS011;9914;51.008;4.300;2022-08-19T12:55:22;5.43;;;4.70;;
19537;SDS011;9914;51.008;4.300;2022-08-19T12:57:48;5.23;;;4.73;;
19537;SDS011;9914;51.008;4.300;2022-08-19T13:00:17;5.83;;;5.20;;
19537;SDS011;9914;51.008;4.300;2022-08-19T13:02:46;6.33;;;5.03;;
19537;SDS011;9914;51.008;4.300;2022-08-19T13:05:19;5.03;;;4.20;;
19537;SDS011;9914;51.008;4.300;2022-08-19T13:07:48;6.17;;;4.60;;
19537;SDS011;9914;51.008;4.300;2022-08-19T13:10:15;5.63;;;4.67;;
19537;SDS011;9914;51.008;4.300;2022-08-19T13:12:43;8.10;;;3.97;;
19537;SDS011;9914;51.008;4.300;2022-08-19T13:15:10;9.37;;;4.83;;
19537;SDS011;9914;51.008;4.300;2022-08-19T13:17:37;5.50;;;3.63;;
19537;SDS011;9914;51.008;4.300;2022-08-19T13:20:04;6.70;;;4.50;;
19537;SDS011;9914;51.008;4.300;2022-08-19T13:22:33;5.77;;;4.10;;
19537;SDS011;9914;51.008;4.300;2022-08-19T13:25:01;4.37;;;3.50;;
19537;SDS011;9914;51.008;4.300;2022-08-19T13:27:28;4.73;;;3.70;;
19537;SDS011;9914;51.008;4.300;2022-08-19T13:29:54;5.30;;;3.43;;
19537;SDS011;9914;51.008;4.300;2022-08-19T13:32:38;4.03;;;3.73;;
19537;SDS011;9914;51.008;4.300;2022-08-19T13:35:22;4.40;;;3.77;;
19537;SDS011;9914;51.008;4.300;2022-08-19T13:37:48;5.10;;;3.93;;
19537;SDS011;9914;51.008;4.300;2022-08-19T13:40:15;4.43;;;4.03;;
19537;SDS011;9914;51.008;4.300;2022-08-19T13:42:44;4.10;;;3.70;;
19537;SDS011;9914;51.008;4.300;2022-08-19T13:45:11;4.20;;;3.80;;
19537;SDS011;9914;51.008;4.300;2022-08-19T13:47:39;5.97;;;3.20;;
19537;SDS011;9914;51.008;4.300;2022-08-19T13:50:11;3.47;;;2.70;;
19537;SDS011;9914;51.008;4.300;2022-08-19T13:52:38;3.37;;;2.70;;
19537;SDS011;9914;51.008;4.300;2022-08-19T13:55:05;3.43;;;2.87;;
19537;SDS011;9914;51.008;4.300;2022-08-19T13:57:32;4.33;;;2.60;;
19537;SDS011;9914;51.008;4.300;2022-08-19T13:59:58;4.10;;;2.67;;
19537;SDS011;9914;51.008;4.300;2022-08-19T14:02:24;3.23;;;2.87;;
19537;SDS011;9914;51.008;4.300;2022-08-19T14:04:51;2.47;;;2.27;;
19537;SDS011;9914;51.008;4.300;2022-08-19T14:07:17;4.47;;;2.37;;
19537;SDS011;9914;51.008;4.300;2022-08-19T14:09:43;4.13;;;1.90;;
19537;SDS011;9914;51.008;4.300;2022-08-19T14:12:08;3.80;;;2.20;;
19537;SDS011;9914;51.008;4.300;2022-08-19T14:14:37;4.63;;;1.53;;
19537;SDS011;9914;51.008;4.300;2022-08-19T14:17:07;1.83;;;1.40;;
19537;SDS011;9914;51.008;4.300;2022-08-19T14:19:34;2.53;;;1.80;;
19537;SDS011;9914;51.008;4.300;2022-08-19T14:21:59;4.60;;;2.77;;
19537;SDS011;9914;51.008;4.300;2022-08-19T14:24:26;4.90;;;2.23;;
19537;SDS011;9914;51.008;4.300;2022-08-19T14:26:52;3.37;;;2.33;;
19537;SDS011;9914;51.008;4.300;2022-08-19T14:29:17;2.83;;;1.87;;
19537;SDS011;9914;51.008;4.300;2022-08-19T14:31:43;3.63;;;2.10;;
19537;SDS011;9914;51.008;4.300;2022-08-19T14:34:09;3.23;;;2.37;;
19537;SDS011;9914;51.008;4.300;2022-08-19T14:36:38;5.90;;;2.70;;
19537;SDS011;9914;51.008;4.300;2022-08-19T14:39:04;5.13;;;1.60;;
19537;SDS011;9914;51.008;4.300;2022-08-19T14:41:30;2.20;;;1.40;;
19537;SDS011;9914;51.008;4.300;2022-08-19T14:43:56;2.73;;;1.10;;
19537;SDS011;9914;51.008;4.300;2022-08-19T14:46:23;1.43;;;1.10;;
19537;SDS011;9914;51.008;4.300;2022-08-19T14:48:51;2.67;;;1.40;;
19537;SDS011;9914;51.008;4.300;2022-08-19T14:51:18;2.13;;;1.20;;
19537;SDS011;9914;51.008;4.300;2022-08-19T14:53:44;2.30;;;1.40;;
19537;SDS011;9914;51.008;4.300;2022-08-19T14:56:15;3.23;;;1.40;;
19537;SDS011;9914;51.008;4.300;2022-08-19T14:58:43;1.80;;;1.67;;
19537;SDS011;9914;51.008;4.300;2022-08-19T15:01:09;3.20;;;1.50;;
19537;SDS011;9914;51.008;4.300;2022-08-19T15:03:37;2.77;;;1.70;;